Time;durP1;ratioP1;P1;durP2;ratioP2;P2;SDS_P1;SDS_P2;PMS_P1;PMS_P2;Temp;Humidity;BMP_temperature;BMP_pressure;BME280_temperature;BME280_humidity;BME280_pressure;Samples;Min_cycle;Max_cycle;Signal;HPM_P1;HPM_P2
2021/04/30 00:01:26;;;;;;;27.15;12.70;;;;;;;15.52;100.00;94468.25;10408882;28;20374;-81
2021/04/30 00:06:26;;;;;;;25.83;12.10;;;;;;;15.53;100.00;94466.31;10408017;28;20033;-81
2021/04/30 00:11:26;;;;;;;22.00;12.02;;;;;;;15.62;100.00;94466.38;10404615;28;20272;-81
2021/04/30 00:16:27;;;;;;;23.02;12.30;;;;;;;15.70;100.00;94465.63;10389019;28;20108;-81
2021/04/30 00:21:28;;;;;;;24.75;12.73;;;;;;;15.70;100.00;94473.75;10406323;28;20107;-81
2021/04/30 00:26:29;;;;;;;20.38;11.90;;;;;;;15.65;100.00;94479.31;10389043;28;20021;-81
2021/04/30 00:31:30;;;;;;;23.13;12.43;;;;;;;15.59;100.00;94475.94;10407692;28;20029;-81
2021/04/30 00:36:32;;;;;;;25.65;12.32;;;;;;;15.48;100.00;94488.16;10408375;28;20059;-81
2021/04/30 00:41:32;;;;;;;29.65;15.15;;;;;;;15.49;100.00;94495.94;10407065;28;20048;-82
2021/04/30 00:46:33;;;;;;;23.13;12.57;;;;;;;15.52;100.00;94494.53;10389365;28;20052;-81
2021/04/30 00:51:33;;;;;;;24.20;13.45;;;;;;;15.44;100.00;94503.41;10406891;28;20539;-81
2021/04/30 00:56:35;;;;;;;24.20;14.70;;;;;;;15.36;100.00;94502.25;10406061;28;20025;-81
2021/04/30 01:01:36;;;;;;;21.25;14.40;;;;;;;15.33;100.00;94492.03;10406705;28;20068;-81
2021/04/30 01:06:36;;;;;;;29.85;15.43;;;;;;;15.24;100.00;94510.13;10405391;28;20095;-81
2021/04/30 01:11:37;;;;;;;27.90;15.05;;;;;;;15.08;100.00;94512.41;10406057;28;20087;-81
2021/04/30 01:16:37;;;;;;;22.53;15.20;;;;;;;15.15;100.00;94512.75;10388367;28;20018;-81
2021/04/30 01:21:38;;;;;;;24.93;16.37;;;;;;;14.97;100.00;94517.25;10405973;28;20071;-81
2021/04/30 01:26:43;;;;;;;23.40;14.97;;;;;;;14.78;100.00;94523.63;10405568;28;20375;-81
2021/04/30 01:31:44;;;;;;;30.98;17.13;;;;;;;14.57;100.00;94535.94;10413973;28;20272;-81
2021/04/30 01:36:45;;;;;;;31.50;16.50;;;;;;;14.62;100.00;94549.38;10405894;28;20029;-81
2021/04/30 01:41:45;;;;;;;27.63;16.30;;;;;;;14.52;100.00;94534.94;10405083;28;20036;-80
2021/04/30 01:46:45;;;;;;;40.77;18.70;;;;;;;14.48;100.00;94546.69;10402848;28;20029;-81
2021/04/30 01:51:46;;;;;;;31.23;18.13;;;;;;;14.38;100.00;94531.47;10404437;28;20136;-81
2021/04/30 01:56:46;;;;;;;33.43;18.87;;;;;;;14.38;100.00;94545.00;10403128;28;20040;-81
2021/04/30 02:01:46;;;;;;;32.92;18.67;;;;;;;14.25;100.00;94543.13;10403467;28;20450;-81
2021/04/30 02:06:47;;;;;;;40.72;20.98;;;;;;;14.04;100.00;94548.09;10385983;28;20480;-80
2021/04/30 02:11:47;;;;;;;35.13;18.55;;;;;;;14.12;100.00;94544.69;10385886;28;20036;-80
2021/04/30 02:16:48;;;;;;;24.90;18.53;;;;;;;14.17;100.00;94550.78;10408969;28;20025;-81
2021/04/30 02:21:48;;;;;;;38.03;18.43;;;;;;;14.22;100.00;94551.78;10411862;28;20108;-80
2021/04/30 02:26:48;;;;;;;37.03;19.57;;;;;;;14.10;100.00;94550.41;10411098;28;20080;-80
2021/04/30 02:31:49;;;;;;;43.70;18.03;;;;;;;13.92;100.00;94556.69;10411175;28;20033;-80
2021/04/30 02:36:49;;;;;;;34.67;20.13;;;;;;;13.78;100.00;94554.75;10411104;28;20033;-81
2021/04/30 02:41:50;;;;;;;34.87;20.40;;;;;;;13.85;100.00;94563.28;10410932;28;20295;-80
2021/04/30 02:46:50;;;;;;;38.75;19.65;;;;;;;13.80;100.00;94560.69;10410868;28;20109;-81
2021/04/30 02:51:50;;;;;;;31.23;20.80;;;;;;;13.82;100.00;94560.38;10411689;28;20178;-81
2021/04/30 02:56:51;;;;;;;33.93;19.73;;;;;;;13.74;100.00;94571.88;10410931;28;20357;-81
2021/04/30 03:01:51;;;;;;;38.13;23.37;;;;;;;13.49;100.00;94579.28;10410287;28;20108;-81
2021/04/30 03:06:51;;;;;;;39.57;23.27;;;;;;;13.37;100.00;94585.16;10409922;28;20512;-80
2021/04/30 03:11:52;;;;;;;39.57;22.33;;;;;;;13.43;100.00;94597.47;10409920;28;20037;-80
2021/04/30 03:16:53;;;;;;;41.80;22.60;;;;;;;13.38;100.00;94602.16;10409449;28;20041;-80
2021/04/30 03:21:54;;;;;;;38.25;23.13;;;;;;;13.31;100.00;94607.88;10409556;28;20351;-80
2021/04/30 03:26:54;;;;;;;44.78;25.27;;;;;;;13.01;100.00;94620.75;10409152;28;20034;-81
2021/04/30 03:31:55;;;;;;;46.03;29.00;;;;;;;13.07;100.00;94619.56;10409567;28;20036;-81
2021/04/30 03:36:55;;;;;;;52.92;28.30;;;;;;;13.02;100.00;94638.53;10409690;28;20600;-81
2021/04/30 03:41:55;;;;;;;37.20;25.17;;;;;;;13.14;100.00;94628.13;10409180;28;20029;-80
2021/04/30 03:46:56;;;;;;;41.85;27.92;;;;;;;13.04;100.00;94630.16;10408711;28;20033;-81
2021/04/30 03:51:56;;;;;;;42.83;27.03;;;;;;;12.96;100.00;94635.13;10408093;28;20025;-80
2021/04/30 03:56:58;;;;;;;48.23;26.03;;;;;;;13.05;100.00;94637.16;10408103;28;20276;-81
2021/04/30 04:01:58;;;;;;;48.50;27.80;;;;;;;13.03;100.00;94634.72;10406851;28;20825;-76
2021/04/30 04:06:59;;;;;;;53.77;27.83;;;;;;;13.22;100.00;94642.06;10406672;28;20029;-79
2021/04/30 04:11:59;;;;;;;41.63;25.60;;;;;;;13.32;100.00;94642.69;10406313;28;20031;-76
2021/04/30 04:17:00;;;;;;;47.73;25.90;;;;;;;13.45;100.00;94662.78;10388636;28;20018;-77
2021/04/30 04:22:00;;;;;;;41.23;25.37;;;;;;;13.64;100.00;94667.38;10405225;28;20517;-75
2021/04/30 04:27:01;;;;;;;39.63;22.85;;;;;;;13.97;100.00;94676.28;10405863;28;20087;-75
2021/04/30 04:32:02;;;;;;;39.13;22.20;;;;;;;14.22;100.00;94708.56;10405487;28;20030;-76
2021/04/30 04:37:04;;;;;;;30.85;18.75;;;;;;;14.46;100.00;94711.94;10404927;28;20622;-77
2021/04/30 04:42:06;;;;;;;29.15;19.55;;;;;;;14.74;100.00;94701.16;10405076;28;20650;-76
2021/04/30 04:47:06;;;;;;;32.75;19.65;;;;;;;14.93;100.00;94724.63;10404709;28;20053;-76
2021/04/30 04:52:06;;;;;;;39.03;19.40;;;;;;;14.95;100.00;94722.44;10404579;28;20108;-76
2021/04/30 04:57:07;;;;;;;30.80;20.63;;;;;;;14.92;100.00;94723.03;10387173;28;20552;-76
2021/04/30 05:02:08;;;;;;;32.40;20.42;;;;;;;14.50;100.00;94734.56;10383396;28;20280;-76
2021/04/30 05:07:08;;;;;;;34.40;21.47;;;;;;;15.11;100.00;94729.16;10389422;28;20037;-77
2021/04/30 05:12:09;;;;;;;26.98;16.70;;;;;;;16.18;100.00;94708.88;10406730;28;20025;-78
2021/04/30 05:17:09;;;;;;;32.57;15.83;;;;;;;16.50;100.00;94708.91;10399128;28;20407;-77
2021/04/30 05:22:11;;;;;;;26.33;14.35;;;;;;;17.22;100.00;94710.50;10365205;28;20284;-77
2021/04/30 05:27:12;;;;;;;27.45;14.13;;;;;;;18.02;100.00;94716.84;10365504;28;20022;-78
2021/04/30 05:32:12;;;;;;;23.35;14.07;;;;;;;18.87;100.00;94713.47;10365159;28;20034;-77
2021/04/30 05:37:13;;;;;;;27.25;13.07;;;;;;;20.04;100.00;94714.06;10364474;28;20096;-77
2021/04/30 05:42:13;;;;;;;24.43;12.70;;;;;;;20.56;100.00;94710.84;10364730;28;20046;-78
2021/04/30 05:47:13;;;;;;;21.90;11.20;;;;;;;21.28;100.00;94718.72;10363748;28;20292;-78
2021/04/30 05:52:14;;;;;;;15.97;8.07;;;;;;;21.64;95.26;94717.13;10369417;28;20026;-77
2021/04/30 05:57:15;;;;;;;33.58;8.57;;;;;;;22.51;82.15;94722.34;10408199;28;20029;-77
2021/04/30 06:02:16;;;;;;;14.20;7.18;;;;;;;23.30;73.73;94729.06;10412655;28;20041;-77
2021/04/30 06:07:16;;;;;;;20.30;7.17;;;;;;;23.12;76.37;94714.94;10412760;28;20029;-77
2021/04/30 06:12:16;;;;;;;17.47;7.50;;;;;;;24.09;69.93;94710.88;10412088;28;20029;-76
2021/04/30 06:17:19;;;;;;;16.57;7.13;;;;;;;24.48;63.32;94719.91;10412725;28;20025;-78
2021/04/30 06:22:19;;;;;;;13.20;7.18;;;;;;;24.76;64.28;94699.63;10417866;28;20048;-77
2021/04/30 06:27:20;;;;;;;12.67;5.77;;;;;;;25.85;57.89;94707.66;10411259;28;20052;-77
2021/04/30 06:32:20;;;;;;;20.63;6.57;;;;;;;26.33;54.50;94710.69;10394253;28;20040;-77
2021/04/30 06:37:20;;;;;;;12.43;6.20;;;;;;;27.10;48.98;94702.06;10411670;28;20491;-78
2021/04/30 06:42:21;;;;;;;17.60;4.90;;;;;;;28.39;43.75;94710.41;10411424;28;20401;-78
2021/04/30 06:47:21;;;;;;;13.83;4.97;;;;;;;28.35;42.75;94720.66;10412045;28;20104;-79
2021/04/30 06:52:22;;;;;;;15.70;4.80;;;;;;;29.22;41.50;94712.59;10411551;28;20316;-79
2021/04/30 06:57:22;;;;;;;15.60;3.78;;;;;;;30.14;37.94;94719.28;10372839;28;20026;-80
2021/04/30 07:02:23;;;;;;;15.60;4.20;;;;;;;29.69;37.14;94723.72;10368265;28;20026;-79
2021/04/30 07:07:24;;;;;;;14.43;5.03;;;;;;;30.33;38.35;94718.03;10368915;28;20292;-80
2021/04/30 07:12:25;;;;;;;11.57;4.68;;;;;;;30.82;35.71;94709.91;10368940;28;20032;-81
2021/04/30 07:17:25;;;;;;;14.98;4.45;;;;;;;31.82;34.91;94712.41;10382338;28;20032;-81
2021/04/30 07:22:26;;;;;;;10.83;3.33;;;;;;;31.68;33.92;94716.09;10392205;28;20033;-80
2021/04/30 07:27:26;;;;;;;12.55;3.65;;;;;;;32.95;32.82;94729.41;10410108;28;20295;-80
2021/04/30 07:32:27;;;;;;;11.43;3.00;;;;;;;33.30;30.60;94716.19;10410058;28;20116;-81
2021/04/30 07:37:27;;;;;;;10.18;3.03;;;;;;;33.34;30.76;94709.34;10410372;28;20025;-80
2021/04/30 07:42:28;;;;;;;12.00;3.73;;;;;;;33.41;29.95;94705.66;10409949;28;20100;-81
2021/04/30 07:47:28;;;;;;;11.33;2.93;;;;;;;33.83;29.83;94699.81;10409702;28;20025;-79
2021/04/30 07:52:28;;;;;;;11.43;3.13;;;;;;;31.74;32.82;94699.75;10408715;28;20298;-79
2021/04/30 07:57:29;;;;;;;17.87;4.03;;;;;;;32.63;32.18;94691.66;10369421;28;20118;-79
2021/04/30 08:02:30;;;;;;;6.65;2.60;;;;;;;33.69;28.99;94693.25;10348835;28;20034;-77
2021/04/30 08:07:31;;;;;;;11.13;3.70;;;;;;;34.24;28.46;94684.69;10366313;28;20042;-79
2021/04/30 08:12:31;;;;;;;8.73;2.73;;;;;;;34.57;28.48;94673.72;10364225;28;20380;-77
2021/04/30 08:17:31;;;;;;;12.43;3.07;;;;;;;33.94;29.28;94680.91;10367352;28;20543;-77
2021/04/30 08:22:32;;;;;;;13.27;3.07;;;;;;;35.21;26.98;94663.09;10366946;28;20030;-77
2021/04/30 08:27:32;;;;;;;16.50;2.67;;;;;;;35.41;27.45;94665.06;10366992;28;20036;-77
2021/04/30 08:32:33;;;;;;;12.35;2.80;;;;;;;36.34;28.00;94649.84;10366714;28;20276;-78
2021/04/30 08:37:34;;;;;;;10.00;3.17;;;;;;;36.31;26.13;94645.97;10365676;28;20091;-77
2021/04/30 08:42:34;;;;;;;14.45;2.42;;;;;;;36.61;25.38;94644.66;10364758;28;20064;-77
2021/04/30 08:47:36;;;;;;;12.02;2.72;;;;;;;36.59;26.64;94638.72;10347426;28;20034;-77
2021/04/30 08:52:36;;;;;;;8.82;2.22;;;;;;;38.18;24.60;94632.78;10365851;28;20105;-77
2021/04/30 08:57:37;;;;;;;5.38;1.90;;;;;;;38.54;23.34;94629.44;10364773;28;20028;-77
2021/04/30 09:02:38;;;;;;;7.47;2.50;;;;;;;38.45;23.53;94632.22;10364875;28;20092;-77
2021/04/30 09:07:40;;;;;;;10.02;2.58;;;;;;;38.40;23.92;94627.19;10346499;28;20022;-76
2021/04/30 09:12:41;;;;;;;13.50;2.33;;;;;;;38.46;23.80;94617.72;10364393;28;20540;-76
2021/04/30 09:17:42;;;;;;;10.05;2.88;;;;;;;38.47;23.73;94612.88;10363247;28;20026;-76
2021/04/30 09:22:43;;;;;;;9.57;2.08;;;;;;;38.83;22.73;94614.34;10363663;28;20026;-76
2021/04/30 09:27:54;;;;;;;11.57;2.25;;;;;;;39.50;23.28;94605.66;10351450;28;20052;-76
2021/04/30 09:33:11;;;;;;;10.23;2.60;;;;;;;39.69;22.24;94601.66;10372239;28;20041;-76
2021/04/30 09:38:20;;;;;;;11.80;2.10;;;;;;;37.31;24.71;94606.94;10372620;28;20113;-76
2021/04/30 09:43:21;;;;;;;14.20;2.78;;;;;;;37.42;24.38;94602.53;10371252;28;20042;-76
2021/04/30 09:48:21;;;;;;;6.77;1.87;;;;;;;37.26;24.28;94595.03;10372052;28;20021;-77
2021/04/30 09:53:27;;;;;;;13.33;2.57;;;;;;;37.94;23.17;94591.94;10372633;28;20149;-76
2021/04/30 09:58:29;;;;;;;8.43;2.38;;;;;;;39.23;21.80;94585.47;10371426;28;20038;-76
2021/04/30 10:03:35;;;;;;;7.38;1.85;;;;;;;39.85;20.80;94568.81;10371444;28;20540;-77
2021/04/30 10:08:36;;;;;;;10.50;2.10;;;;;;;40.20;20.62;94563.63;10362048;28;20027;-80
2021/04/30 10:13:36;;;;;;;6.65;2.10;;;;;;;40.26;20.61;94560.94;10331217;28;20023;-79
2021/04/30 10:18:37;;;;;;;10.47;2.20;;;;;;;40.56;20.02;94549.97;10330729;28;20044;-79
2021/04/30 10:23:38;;;;;;;10.73;2.53;;;;;;;40.59;21.29;94544.13;10313316;28;20143;-78
2021/04/30 10:28:41;;;;;;;6.18;1.98;;;;;;;41.28;19.29;94540.81;10332495;28;20109;-78
2021/04/30 10:34:12;;;;;;;6.75;1.88;;;;;;;40.57;20.38;94526.94;10330516;28;20030;-79
2021/04/30 10:39:24;;;;;;;10.90;2.38;;;;;;;41.71;20.17;94518.88;10326200;28;20046;-79
2021/04/30 10:44:28;;;;;;;9.20;1.73;;;;;;;41.72;17.91;94511.22;10352938;28;20041;-79
2021/04/30 10:49:28;;;;;;;7.90;2.03;;;;;;;41.32;18.52;94497.09;10370719;28;20412;-83
2021/04/30 10:54:31;;;;;;;10.93;2.40;;;;;;;40.94;19.79;94492.19;10370228;28;20150;-83
2021/04/30 10:59:40;;;;;;;7.07;1.70;;;;;;;42.09;17.87;94497.56;10369729;28;20167;-83
2021/04/30 11:05:03;;;;;;;13.10;1.83;;;;;;;41.65;17.98;94475.69;10368747;28;20033;-83
2021/04/30 11:10:22;;;;;;;10.55;2.20;;;;;;;38.82;20.37;94461.06;10368618;28;20041;-83
2021/04/30 11:15:24;;;;;;;13.02;2.33;;;;;;;34.83;23.67;94464.56;10369246;28;20030;-83
2021/04/30 11:20:31;;;;;;;8.27;2.60;;;;;;;32.86;26.22;94465.47;10369302;28;20062;-82
2021/04/30 11:25:31;;;;;;;6.60;2.05;;;;;;;31.15;29.12;94466.22;10368855;28;20030;-82
2021/04/30 11:30:31;;;;;;;11.73;2.10;;;;;;;29.66;30.03;94460.19;10367463;28;20033;-82
2021/04/30 11:35:32;;;;;;;10.13;2.30;;;;;;;28.93;31.15;94447.00;10368526;28;20048;-82
2021/04/30 11:40:32;;;;;;;10.02;1.95;;;;;;;28.72;32.86;94470.75;10368943;28;20038;-83
2021/04/30 11:45:34;;;;;;;7.57;2.67;;;;;;;28.89;32.03;94463.59;10368967;28;20040;-82
2021/04/30 11:50:35;;;;;;;12.90;2.88;;;;;;;28.88;36.34;94448.19;10369263;28;20269;-83
2021/04/30 11:55:40;;;;;;;9.47;1.50;;;;;;;28.97;27.65;94448.56;10368634;28;20092;-82
2021/04/30 12:00:41;;;;;;;14.25;1.80;;;;;;;28.74;28.96;94446.22;10368410;28;20281;-82
2021/04/30 12:05:41;;;;;;;8.25;1.67;;;;;;;28.42;28.54;94435.97;10350602;28;20124;-82
2021/04/30 12:10:43;;;;;;;8.15;1.50;;;;;;;28.53;28.35;94421.34;10368476;28;20037;-83
2021/04/30 12:15:44;;;;;;;11.27;1.90;;;;;;;28.39;28.03;94417.41;10367524;28;20030;-83
2021/04/30 12:20:46;;;;;;;6.45;1.67;;;;;;;28.11;28.77;94410.69;10367420;28;20038;-83
2021/04/30 12:25:49;;;;;;;12.73;1.80;;;;;;;28.32;28.48;94398.06;10366645;28;20451;-83
2021/04/30 12:30:52;;;;;;;13.40;2.45;;;;;;;28.12;28.82;94392.16;10367427;28;20185;-82
2021/04/30 12:35:54;;;;;;;6.53;1.27;;;;;;;28.16;30.36;94379.16;10365893;28;20030;-81
2021/04/30 12:40:55;;;;;;;7.82;1.42;;;;;;;28.19;28.42;94369.25;10366119;28;20036;-82
2021/04/30 12:45:56;;;;;;;11.88;1.25;;;;;;;28.06;29.06;94352.28;10366611;28;20077;-81
2021/04/30 12:50:56;;;;;;;10.90;1.50;;;;;;;28.01;28.82;94347.97;10366986;28;20440;-81
2021/04/30 12:55:57;;;;;;;6.45;1.35;;;;;;;27.67;28.84;94347.53;10366101;28;20400;-81
2021/04/30 13:01:00;;;;;;;9.97;1.90;;;;;;;28.06;30.05;94336.53;10365969;28;20026;-81
2021/04/30 13:06:02;;;;;;;10.77;1.67;;;;;;;28.33;30.98;94319.50;10347632;28;20269;-80
2021/04/30 13:11:06;;;;;;;6.43;1.25;;;;;;;28.24;28.10;94317.13;10365152;28;20048;-80
2021/04/30 13:16:06;;;;;;;10.38;1.63;;;;;;;28.50;28.03;94317.09;10364656;28;20448;-80
2021/04/30 13:21:06;;;;;;;9.40;1.47;;;;;;;28.26;27.75;94308.47;10364940;28;20036;-80
2021/04/30 13:26:24;;;;;;;4.67;1.30;;;;;;;28.24;26.49;94303.31;10364514;28;20641;-80
2021/04/30 13:31:25;;;;;;;6.68;1.15;;;;;;;28.01;26.52;94284.44;10364091;28;20030;-80
2021/04/30 13:36:25;;;;;;;3.87;1.53;;;;;;;27.95;26.26;94294.25;10364192;28;20029;-80
2021/04/30 13:41:35;;;;;;;6.70;1.30;;;;;;;28.08;26.70;94286.41;10364575;28;20041;-80
2021/04/30 13:46:35;;;;;;;8.05;1.50;;;;;;;28.28;25.76;94295.81;10403560;28;20299;-81
2021/04/30 13:51:36;;;;;;;8.40;1.80;;;;;;;28.36;25.82;94291.06;10406358;28;20026;-80
2021/04/30 13:56:37;;;;;;;17.08;1.60;;;;;;;28.39;25.67;94298.56;10375364;28;20026;-79
2021/04/30 14:01:37;;;;;;;11.48;2.85;;;;;;;28.21;26.64;94278.47;10364155;28;20030;-80
2021/04/30 14:06:37;;;;;;;13.60;2.97;;;;;;;28.05;25.85;94279.69;10365191;28;20080;-81
2021/04/30 14:11:38;;;;;;;6.60;1.27;;;;;;;28.00;26.20;94282.84;10365729;28;20025;-81
2021/04/30 14:16:38;;;;;;;11.13;1.50;;;;;;;27.94;25.68;94287.19;10370274;28;20053;-81
2021/04/30 14:21:42;;;;;;;5.70;1.60;;;;;;;28.02;25.99;94280.50;10370206;28;20034;-80
2021/04/30 14:26:43;;;;;;;15.68;2.40;;;;;;;27.94;25.65;94289.94;10369759;28;20276;-80
2021/04/30 14:31:44;;;;;;;7.38;1.63;;;;;;;27.79;26.13;94297.44;10371296;28;20034;-80
2021/04/30 14:36:44;;;;;;;9.53;1.60;;;;;;;27.72;25.63;94278.13;10370465;28;20030;-80
2021/04/30 14:41:45;;;;;;;12.32;2.13;;;;;;;27.69;25.34;94271.41;10371880;28;20026;-80
2021/04/30 14:46:45;;;;;;;22.13;2.63;;;;;;;27.67;26.95;94279.31;10372134;28;20025;-81
2021/04/30 14:51:45;;;;;;;12.23;2.20;;;;;;;27.62;24.82;94276.94;10371634;28;20034;-81
2021/04/30 14:56:47;;;;;;;10.73;2.03;;;;;;;27.60;23.76;94271.00;10403676;28;20095;-80
2021/04/30 15:01:48;;;;;;;8.50;1.58;;;;;;;27.67;24.71;94270.22;10412119;28;20021;-80
2021/04/30 15:06:49;;;;;;;6.22;1.83;;;;;;;27.79;24.71;94256.78;10411844;28;20026;-81
2021/04/30 15:11:50;;;;;;;12.47;1.70;;;;;;;27.68;25.00;94261.53;10411038;28;20026;-80
2021/04/30 15:16:51;;;;;;;11.80;1.80;;;;;;;27.57;24.24;94263.50;10409077;28;20113;-80
2021/04/30 15:21:51;;;;;;;12.63;2.13;;;;;;;27.49;26.04;94273.78;10409767;28;20396;-81
2021/04/30 15:26:51;;;;;;;13.60;2.23;;;;;;;27.34;27.02;94261.91;10410945;28;20048;-79
2021/04/30 15:31:52;;;;;;;16.97;2.40;;;;;;;27.16;25.29;94269.38;10410861;28;20370;-81
2021/04/30 15:36:52;;;;;;;18.13;1.93;;;;;;;27.09;25.82;94259.91;10410661;28;20032;-82
2021/04/30 15:41:52;;;;;;;7.10;2.47;;;;;;;27.01;25.63;94265.78;10410958;28;20268;-80
2021/04/30 15:46:53;;;;;;;10.03;2.53;;;;;;;26.90;26.65;94269.31;10410747;28;20021;-81
2021/04/30 15:51:54;;;;;;;17.53;3.00;;;;;;;26.77;26.00;94282.66;10410011;28;20291;-81
2021/04/30 15:56:54;;;;;;;8.77;2.40;;;;;;;26.56;26.49;94277.03;10375935;28;20037;-80
2021/04/30 16:01:54;;;;;;;17.03;2.83;;;;;;;26.38;26.05;94288.75;10351591;28;20033;-80
2021/04/30 16:06:55;;;;;;;5.50;1.90;;;;;;;26.32;25.88;94284.81;10368330;28;20022;-83
2021/04/30 16:11:55;;;;;;;10.87;2.07;;;;;;;26.26;26.16;94284.38;10368276;28;20030;-81
2021/04/30 16:16:55;;;;;;;11.57;2.03;;;;;;;26.28;26.20;94292.25;10368833;28;20033;-81
2021/04/30 16:21:56;;;;;;;13.60;2.70;;;;;;;26.18;26.48;94315.81;10367780;28;20092;-80
2021/04/30 16:26:56;;;;;;;8.60;1.70;;;;;;;26.10;27.85;94320.47;10368181;28;20396;-80
2021/04/30 16:31:57;;;;;;;12.60;2.57;;;;;;;25.79;29.23;94332.00;10350938;28;20481;-81
2021/04/30 16:36:57;;;;;;;8.40;2.23;;;;;;;25.61;29.97;94335.41;10367481;28;20056;-81
2021/04/30 16:41:58;;;;;;;7.07;2.13;;;;;;;25.39;31.35;94340.69;10367458;28;20277;-81
2021/04/30 16:46:58;;;;;;;14.73;2.70;;;;;;;25.33;32.43;94355.97;10367929;28;20109;-81
2021/04/30 16:51:58;;;;;;;12.10;3.58;;;;;;;25.35;32.91;94348.13;10368012;28;20134;-81
2021/04/30 16:56:59;;;;;;;8.17;3.03;;;;;;;25.17;33.90;94336.91;10400990;28;20034;-81
2021/04/30 17:01:59;;;;;;;10.57;2.17;;;;;;;24.96;34.30;94355.94;10408545;28;20025;-81
2021/04/30 17:07:00;;;;;;;16.75;2.50;;;;;;;24.66;34.47;94360.28;10407999;28;20033;-81
2021/04/30 17:12:00;;;;;;;5.65;2.33;;;;;;;24.56;35.00;94353.44;10407369;28;20090;-80
2021/04/30 17:17:01;;;;;;;10.37;1.90;;;;;;;24.53;34.95;94365.19;10407784;28;20021;-81
2021/04/30 17:22:01;;;;;;;7.32;2.28;;;;;;;24.39;34.60;94356.72;10407585;28;20651;-81
2021/04/30 17:27:02;;;;;;;12.07;2.50;;;;;;;24.35;35.10;94353.97;10407277;28;20032;-81
2021/04/30 17:32:03;;;;;;;8.07;2.15;;;;;;;24.32;35.41;94360.19;10405384;28;20052;-81
2021/04/30 17:37:04;;;;;;;15.25;2.13;;;;;;;24.26;35.47;94361.66;10403637;28;20092;-81
2021/04/30 17:42:05;;;;;;;15.47;3.20;;;;;;;24.27;35.74;94359.72;10406494;28;20111;-82
2021/04/30 17:47:05;;;;;;;11.77;2.47;;;;;;;24.24;35.85;94355.75;10422191;28;20336;-82
2021/04/30 17:52:05;;;;;;;9.13;3.17;;;;;;;24.18;36.86;94368.22;10397251;28;20136;-81
2021/04/30 17:57:06;;;;;;;6.20;2.30;;;;;;;24.04;36.57;94377.00;10412880;28;20033;-81
2021/04/30 18:02:07;;;;;;;20.13;2.53;;;;;;;23.96;36.92;94373.38;10374709;28;20925;-81
2021/04/30 18:07:11;;;;;;;9.23;2.20;;;;;;;23.87;37.11;94375.53;10353927;28;20018;-81
2021/04/30 18:12:11;;;;;;;6.82;2.45;;;;;;;23.84;37.34;94377.06;10371314;28;20300;-81
2021/04/30 18:17:12;;;;;;;8.88;2.25;;;;;;;23.76;37.55;94394.56;10370211;28;20022;-82
2021/04/30 18:22:12;;;;;;;11.00;2.87;;;;;;;23.74;37.84;94398.88;10371333;28;20400;-81
2021/04/30 18:27:13;;;;;;;8.35;2.75;;;;;;;23.68;37.84;94403.84;10370144;28;20281;-81
2021/04/30 18:32:13;;;;;;;14.35;3.75;;;;;;;23.62;38.21;94413.53;10370263;28;20036;-80
2021/04/30 18:37:14;;;;;;;8.82;4.03;;;;;;;23.50;38.14;94420.00;10353377;28;20469;-80
2021/04/30 18:42:14;;;;;;;12.40;3.33;;;;;;;23.58;38.05;94429.13;10370732;28;20565;-81
2021/04/30 18:47:14;;;;;;;8.73;2.73;;;;;;;23.54;37.65;94421.63;10372841;28;20548;-80
2021/04/30 18:52:15;;;;;;;14.00;4.20;;;;;;;23.50;38.30;94430.97;10410563;28;20068;-77
2021/04/30 18:57:15;;;;;;;10.53;4.40;;;;;;;23.42;41.56;94437.47;10409393;28;20112;-77
2021/04/30 19:02:16;;;;;;;12.02;3.83;;;;;;;23.33;45.06;94440.41;10409039;28;20404;-77
2021/04/30 19:07:16;;;;;;;17.97;4.77;;;;;;;23.18;47.01;94442.91;10409862;28;20506;-77
2021/04/30 19:12:17;;;;;;;12.73;4.30;;;;;;;22.92;47.90;94443.50;10409001;28;20338;-78
2021/04/30 19:17:17;;;;;;;21.27;4.95;;;;;;;22.82;49.10;94444.06;10408772;28;20288;-79
2021/04/30 19:22:18;;;;;;;11.07;4.73;;;;;;;22.77;49.15;94452.56;10366633;28;20389;-77
2021/04/30 19:27:19;;;;;;;17.13;5.00;;;;;;;22.57;52.37;94454.47;10367283;28;20029;-77
2021/04/30 19:32:19;;;;;;;15.45;4.90;;;;;;;22.57;55.60;94477.19;10367258;28;20034;-77
2021/04/30 19:37:20;;;;;;;14.70;4.93;;;;;;;22.36;66.97;94480.22;10367266;28;20120;-77
2021/04/30 19:42:20;;;;;;;14.95;4.60;;;;;;;22.22;68.76;94488.06;10367021;28;20095;-77
2021/04/30 19:47:21;;;;;;;16.20;5.00;;;;;;;22.12;76.41;94494.88;10366996;28;20088;-77
2021/04/30 19:52:21;;;;;;;13.73;5.13;;;;;;;21.95;74.15;94499.53;10366664;28;20038;-77
2021/04/30 19:57:22;;;;;;;17.37;5.50;;;;;;;21.83;72.75;94524.22;10403268;28;20030;-77
2021/04/30 20:02:22;;;;;;;11.35;4.47;;;;;;;21.72;77.71;94545.03;10407184;28;20859;-77
2021/04/30 20:07:24;;;;;;;14.90;4.10;;;;;;;21.72;77.80;94525.88;10407022;28;20017;-77
2021/04/30 20:12:25;;;;;;;15.63;4.97;;;;;;;21.40;75.48;94510.13;10406192;28;20029;-77
2021/04/30 20:17:26;;;;;;;17.13;3.92;;;;;;;21.00;68.43;94487.16;10406646;28;20772;-77
2021/04/30 20:22:26;;;;;;;15.77;5.13;;;;;;;20.96;76.67;94490.94;10406370;28;20021;-77
2021/04/30 20:27:27;;;;;;;11.90;4.70;;;;;;;21.04;76.74;94506.38;10405962;28;20025;-78
2021/04/30 20:32:27;;;;;;;14.38;3.83;;;;;;;21.11;77.71;94513.97;10389168;28;20283;-76
2021/04/30 20:37:27;;;;;;;11.83;4.23;;;;;;;20.95;79.47;94517.44;10405387;28;20030;-77
2021/04/30 20:42:28;;;;;;;13.17;3.60;;;;;;;20.91;75.00;94516.53;10405669;28;20143;-77
2021/04/30 20:47:28;;;;;;;17.63;3.80;;;;;;;20.95;79.59;94509.25;10405626;28;20087;-77
2021/04/30 20:52:29;;;;;;;21.90;3.75;;;;;;;21.00;79.17;94516.38;10405778;28;20025;-77
2021/04/30 20:57:29;;;;;;;9.57;3.08;;;;;;;20.89;70.08;94513.38;10366703;28;20022;-77
2021/04/30 21:02:30;;;;;;;21.20;3.67;;;;;;;20.86;68.61;94521.44;10364172;28;20025;-77
2021/04/30 21:07:30;;;;;;;13.10;4.23;;;;;;;20.69;68.60;94525.22;10346628;28;20119;-78
2021/04/30 21:17:54;;;;;;;13.57;3.53;;;;;;;20.59;70.34;94537.38;10376089;28;20298;-77
2021/04/30 21:22:54;;;;;;;12.87;3.80;;;;;;;20.53;70.97;94530.56;10403695;28;20055;-77
2021/04/30 21:27:55;;;;;;;17.60;3.20;;;;;;;20.47;74.23;94527.22;10404744;28;20264;-77
2021/04/30 21:32:55;;;;;;;16.50;3.50;;;;;;;20.34;68.57;94534.63;10404644;28;20029;-77
2021/04/30 21:37:56;;;;;;;10.13;2.87;;;;;;;20.35;67.73;94532.72;10404181;28;20025;-77
2021/04/30 21:42:57;;;;;;;11.27;3.65;;;;;;;20.30;73.84;94528.25;10388317;28;20332;-78
2021/04/30 21:47:58;;;;;;;17.03;3.80;;;;;;;20.26;72.65;94539.06;10363383;28;20105;-77
2021/04/30 21:52:58;;;;;;;13.43;3.55;;;;;;;20.11;79.76;94545.97;10364567;28;20034;-77
2021/04/30 21:57:58;;;;;;;11.93;3.20;;;;;;;19.91;81.49;94538.66;10404178;28;20048;-78
2021/04/30 22:02:59;;;;;;;14.23;3.40;;;;;;;19.62;76.95;94541.16;10403824;28;20028;-77
2021/04/30 22:07:59;;;;;;;13.37;2.97;;;;;;;19.58;82.36;94562.06;10404174;28;20032;-77
2021/04/30 22:13:00;;;;;;;8.80;3.42;;;;;;;19.56;84.72;94558.06;10403818;28;20030;-77
2021/04/30 22:18:01;;;;;;;12.25;3.13;;;;;;;19.45;79.91;94553.03;10403379;28;20065;-77
2021/04/30 22:23:02;;;;;;;14.10;3.55;;;;;;;19.50;77.96;94548.50;10402643;28;20049;-77
2021/04/30 22:28:04;;;;;;;9.35;3.38;;;;;;;19.50;77.35;94560.19;10403278;28;20093;-76
2021/04/30 22:33:05;;;;;;;10.75;4.40;;;;;;;19.49;76.85;94555.88;10405073;28;20028;-76
2021/04/30 22:38:05;;;;;;;9.13;3.03;;;;;;;19.44;76.47;94569.72;10410191;28;20025;-77
2021/04/30 22:43:05;;;;;;;9.10;3.08;;;;;;;19.35;77.82;94556.16;10410234;28;20291;-77
2021/04/30 22:48:06;;;;;;;10.77;2.87;;;;;;;19.30;80.05;94561.81;10410472;28;20029;-77
2021/04/30 22:53:07;;;;;;;10.73;3.22;;;;;;;19.15;85.20;94551.53;10407869;28;20353;-77
2021/04/30 22:58:07;;;;;;;13.57;3.43;;;;;;;18.89;87.46;94547.03;10369057;28;20042;-77
2021/04/30 23:03:09;;;;;;;13.70;3.50;;;;;;;18.59;95.55;94545.09;10368371;28;20363;-77